Select METAR Reports

 

KLWC - Lawrence, Kansas USA
Distance from station: S 12mi, 20km
Updated: 02/19/2019 10:52am CST
Mostly cloudy
Mostly cloudy
 Wind from E
Wind: E 13 mph , 20 km/h
Temperature: 27°F , -3°C
Wind Chill: 16°F , -9°C
Dew Point: 18°F , -8°C
Humidity: 69%
Barometer: 30.41 inHg , 1029.8 hPa
Clouds: Mostly cloudy
Visibility: 9 miles , 14 km
Cloud details: Mostly cloudy 11000 ft
2019/02/19 16:52 KLWC 191652Z AUTO 08011KT 9SM BKN110 M03/M08 A3041 RMK AO2 SLP311 T10281078
KTOP - Topeka/Billard, Kansas USA
Distance from station: WSW 23mi, 37km
Updated: 02/19/2019 10:53am CST
Few Clouds
Few Clouds
 Wind from E
Wind: E 15 mph , 24 km/h
Temperature: 27°F , -3°C
Wind Chill: 15°F , -9°C
Dew Point: 18°F , -8°C
Humidity: 69%
Barometer: 30.39 inHg , 1029.1 hPa
Clouds: Few Clouds
Visibility: 10 miles , 16 km
Cloud details: Few Clouds 12000 ft
2019/02/19 16:53 KTOP 191653Z 08013KT 10SM FEW120 M03/M08 A3039 RMK AO2 SLP303 T10331078
 
KMCI - Kansas City Intl, Missouri USA
Distance from station: ENE 28mi, 45km
Updated: 02/19/2019 10:53am CST
Overcast
Overcast
 Wind from E
Wind: E 17 mph , 28 km/h
Temperature: 27°F , -3°C
Wind Chill: 14°F , -10°C
Dew Point: 18°F , -8°C
Humidity: 69%
Barometer: 30.41 inHg , 1029.8 hPa
Clouds: Overcast
Visibility: 10 miles , 16 km
Cloud details: Mostly cloudy 12000 ft
Overcast 20000 ft
2019/02/19 16:53 KMCI 191653Z 09015KT 10SM BKN120 OVC200 M03/M08 A3041 RMK AO2 SLP312 T10331078
KFOE - Topeka/Forbes, Kansas USA
Distance from station: SW 29mi, 46km
Updated: 02/19/2019 10:53am CST
Partly cloudy
Partly cloudy
 Wind from E
Wind: E 13 mph , 20 km/h
Temperature: 27°F , -3°C
Wind Chill: 16°F , -9°C
Dew Point: 18°F , -8°C
Humidity: 69%
Barometer: 30.37 inHg , 1028.4 hPa
Clouds: Partly cloudy
Visibility: 10 miles , 16 km
Cloud details: Partly cloudy 11000 ft
2019/02/19 16:53 KFOE 191653Z 09011KT 10SM SCT110 M03/M08 A3037 RMK AO2 SLP297 T10331083
 
KIXD - Olathe/Industrial, Kansas USA
Distance from station: SE 32mi, 52km
Updated: 02/19/2019 10:53am CST
Overcast
Overcast
 Wind from E
Wind: E 13 mph , 20 km/h
Temperature: 27°F , -3°C
Wind Chill: 16°F , -9°C
Dew Point: 19°F , -7°C
Humidity: 74%
Barometer: 30.40 inHg , 1029.5 hPa
Clouds: Overcast
Visibility: 10 miles , 16 km
Cloud details: Overcast 11000 ft
2019/02/19 16:53 KIXD 191653Z 08011KT 10SM OVC110 M03/M07 A3040 RMK AO2 SLP307 T10331072 $
KMKC - Kansas City/Dntn, Missouri USA
Distance from station: E 35mi, 56km
Updated: 02/19/2019 10:54am CST
Few Clouds
Few Clouds
 Wind from E
Wind: E 12 mph , 19 km/h, Gust: 21 mph , 33 km/h
Temperature: 28°F , -2°C
Wind Chill: 18°F , -8°C
Dew Point: 18°F , -8°C
Humidity: 64%
Barometer: 30.42 inHg , 1030.1 hPa
Clouds: Few Clouds
Visibility: 10 miles , 16 km
Cloud details: Few Clouds 12000 ft
2019/02/19 16:54 KMKC 191654Z 08010G18KT 10SM FEW120 M02/M08 A3042 RMK AO2 SLP310 T10221078
 
KMHK - Manhattan, Kansas USA
Distance from station: W 75mi, 120km
Updated: 02/19/2019 10:52am CST
Partly cloudy
Partly cloudy
 Wind from E
Wind: E 14 mph , 22 km/h
Temperature: 25°F , -4°C
Wind Chill: 13°F , -11°C
Dew Point: 18°F , -8°C
Humidity: 74%
Barometer: 30.36 inHg , 1028.1 hPa
Clouds: Partly cloudy
Visibility: 10 miles , 16 km
Cloud details: Partly cloudy 11000 ft
2019/02/19 16:52 KMHK 191652Z 09012KT 10SM SCT110 M04/M08 A3036 RMK AO2 SLP295 T10391078
KFRI - Ft Riley/Marshal, Kansas, USA
Distance from station: W 83mi, 133km
Updated: 02/19/2019 10:56am CST
Overcast
Overcast
 Wind from E
Wind: E 12 mph , 19 km/h
Temperature: 25°F , -4°C
Wind Chill: 14°F , -10°C
Dew Point: 18°F , -8°C
Humidity: 74%
Barometer: 30.34 inHg , 1027.4 hPa
Clouds: Overcast
Visibility: 10 miles , 16 km
Cloud details: Overcast 11000 ft
2019/02/19 16:56 KFRI 191656Z AUTO 09010KT 10SM OVC110 M04/M08 A3034 RMK AO2 SLP289 T10401083
 
KOMA - Omaha, Nebraska USA
Distance from station: N 148mi, 239km
Updated: 02/19/2019 10:52am CST
Mist, Overcast
Mist, Overcast
 Wind from calm
Wind: Calm
Temperature: 12°F , -11°C
Dew Point: 7°F , -14°C
Humidity: 79%
Barometer: 30.49 inHg , 1032.5 hPa
Summary: Mist
Clouds: Overcast
Visibility: 6 miles , 10 km
Cloud details: Few Clouds 12000 ft
Overcast 25000 ft
2019/02/19 16:52 KOMA 191652Z 00000KT 6SM BR FEW120 OVC250 M11/M14 A3049 RMK AO2 SLP344 T11061139
KICT - Wichita, Kansas USA
Distance from station: SW 176mi, 283km
Updated: 02/19/2019 10:53am CST
Overcast
Overcast
 Wind from E
Wind: E 16 mph , 26 km/h, Gust: 23 mph , 37 km/h
Temperature: 30°F , -1°C
Wind Chill: 19°F , -7°C
Dew Point: 21°F , -6°C
Humidity: 69%
Barometer: 30.24 inHg , 1024 hPa
Clouds: Overcast
Visibility: 10 miles , 16 km
Cloud details: Few Clouds 8500 ft
Overcast 10000 ft
2019/02/19 16:53 KICT 191653Z 10014G20KT 10SM FEW085 OVC100 M01/M06 A3024 RMK AO2 SLP253 T10111061
 
KDSM - Des Moines, Iowa USA
Distance from station: NNE 186mi, 300km
Updated: 02/19/2019 10:54am CST
Mist, Overcast
Mist, Overcast
 Wind from calm
Wind: Calm
Temperature: 12°F , -11°C
Dew Point: 9°F , -13°C
Humidity: 85%
Barometer: 30.55 inHg , 1034.5 hPa
Summary: Mist
Clouds: Overcast
Visibility: 6 miles , 10 km
Cloud details: Few Clouds 15000 ft
Overcast 25000 ft
2019/02/19 16:54 KDSM 191654Z 00000KT 6SM BR FEW150 OVC250 M11/M13 A3055 RMK AO2 SNE10 SLP365 P0000 T11111128
KGLD - Goodland, Kansas USA
Distance from station: W 380mi, 611km
Updated: 02/19/2019 10:53am CST
Light snow, Mist, Overcast
Light snow, Mist, Overcast
 Wind from SE
Wind: SE 15 mph , 24 km/h
Temperature: 14°F , -10°C
Wind Chill: -1°F , -18°C
Dew Point: 12°F , -11°C
Humidity: 92%
Barometer: 30.07 inHg , 1018.3 hPa
Summary: Light snow, Mist
Clouds: Overcast
Visibility: 1 1/2 miles , 2.4 km
Cloud details: Overcast 900 ft
2019/02/19 16:53 KGLD 191653Z AUTO 13013KT 1 1/2SM -SN BR OVC009 M10/M11 A3007 RMK AO2 SLP236 P0000 T11001111
 
KOKC - Oklahoma City, Oklahoma USA
Distance from station: SSW 288mi, 463km
Updated: 02/19/2019 10:52am CST
Overcast
Overcast
 Wind from E
Wind: E 13 mph , 20 km/h
Temperature: 34°F , 1°C
Wind Chill: 25°F , -4°C
Dew Point: 21°F , -6°C
Humidity: 60%
Barometer: 30.16 inHg , 1021.3 hPa
Clouds: Overcast
Visibility: 9 miles , 14 km
Cloud details: Overcast 2500 ft
2019/02/19 16:52 KOKC 191652Z 09011KT 9SM OVC025 01/M06 A3016 RMK AO2 SLP224 T00061056 $
KSTL - St Loius, Missouri USA
Distance from station: E 288mi, 463km
Updated: 02/19/2019 10:51am CST
Overcast
Overcast
 Wind from E
Wind: E 13 mph , 20 km/h
Temperature: 30°F , -1°C
Wind Chill: 20°F , -7°C
Dew Point: 21°F , -6°C
Humidity: 69%
Barometer: 30.53 inHg , 1033.9 hPa
Clouds: Overcast
Visibility: 10 miles , 16 km
Cloud details: Few Clouds 2300 ft
Mostly cloudy 18000 ft
Overcast 25000 ft
2019/02/19 16:51 KSTL 191651Z 10011KT 10SM FEW023 BKN180 OVC250 M01/M06 A3053 RMK AO2 SLP350 T10061056
 
KDFW - Dallas/Ft Worth, Texas USA
Distance from station: SSW 452mi, 728km
Updated: 02/19/2019 11:33am CST
Nearby thunderstorm, Heavy rain, Mist, Overcast
Nearby thunderstorm, Heavy rain, Mist, Overcast
 Wind from N
Wind: N 5 mph , 7 km/h
Temperature: 36°F , 2°C
Wind Chill: 32°F , 0°C
Dew Point: 34°F , 1°C
Humidity: 93%
Barometer: 30.12 inHg , 1020 hPa
Summary: Nearby thunderstorm, Heavy rain, Mist
Clouds: Overcast
Visibility: 1 1/2 miles , 2.4 km
Cloud details: Few Clouds 800 ft
Mostly cloudy 1200 ft
Overcast 1700 ft
2019/02/19 17:33 KDFW 191733Z 01004KT 1 1/2SM R17C/0500VP6000FT VCTS +RA BR FEW008 BKN012 OVC017 02/01 A3012 RMK AO2 TWR VIS 2 LTG DSNT W P0008 T00220006 $
PHNL - Honolulu, HI USA
Distance from station: WSW 3856mi, 6206km
Updated: 02/19/2019 10:53am CST
Rain, Mostly cloudy
Rain, Mostly cloudy
 Wind from E
Wind: E 5 mph , 7 km/h
Temperature: 68°F , 20°C
Dew Point: 66°F , 19°C
Humidity: 94%
Barometer: 29.94 inHg , 1013.9 hPa
Summary: Rain
Clouds: Mostly cloudy
Visibility: 10 miles , 16 km
Cloud details: Few Clouds 2200 ft
Partly cloudy 3500 ft
Mostly cloudy 10000 ft
2019/02/19 16:53 PHNL 191653Z 09004KT 10SM RA FEW022 SCT035 BKN100 20/19 A2994 RMK AO2 SLP137 P0007 T02000189